Time;durP1;ratioP1;P1;durP2;ratioP2;P2;SDS_P1;SDS_P2;PMS_P1;PMS_P2;Temp;Humidity;BMP_temperature;BMP_pressure;BME280_temperature;BME280_humidity;BME280_pressure;Samples;Min_cycle;Max_cycle;Signal;HPM_P1;HPM_P2
2022/06/06 00:01:52;;;;;;;6.93;6.43;;;15.00;99.90;;;;;;4957162;28;20539;-81
2022/06/06 00:04:20;;;;;;;8.57;7.87;;;15.00;99.90;;;;;;4957142;28;20199;-83
2022/06/06 00:06:47;;;;;;;8.00;7.33;;;14.90;99.90;;;;;;4960297;28;20672;-83
2022/06/06 00:09:16;;;;;;;4.77;4.37;;;14.90;99.90;;;;;;4971948;28;20633;-83
2022/06/06 00:11:44;;;;;;;5.97;5.53;;;14.90;99.90;;;;;;4952839;28;20241;-83
2022/06/06 00:14:13;;;;;;;6.73;6.23;;;14.90;99.90;;;;;;4952353;28;20203;-83
2022/06/06 00:16:41;;;;;;;6.30;5.87;;;14.80;99.90;;;;;;4948274;28;20337;-83
2022/06/06 00:19:08;;;;;;;10.93;10.23;;;14.80;99.90;;;;;;4971830;28;20211;-83
2022/06/06 00:21:35;;;;;;;7.67;7.17;;;14.80;99.90;;;;;;4971847;28;20194;-82
2022/06/06 00:24:03;;;;;;;6.60;5.90;;;14.80;99.90;;;;;;4971535;28;20215;-83
2022/06/06 00:26:32;;;;;;;23.33;21.80;;;14.80;99.90;;;;;;4971666;28;20222;-83
2022/06/06 00:28:59;;;;;;;13.27;12.37;;;14.80;99.90;;;;;;4953922;28;20220;-82
2022/06/06 00:36:58;;;;;;;11.60;10.77;;;14.70;99.90;;;;;;4951971;28;20212;-83
2022/06/06 00:39:26;;;;;;;12.10;11.20;;;14.60;99.90;;;;;;4955413;28;20230;-83
2022/06/06 00:41:56;;;;;;;12.03;11.23;;;14.60;99.90;;;;;;4968448;28;20356;-82
2022/06/06 00:44:25;;;;;;;11.70;11.00;;;14.50;99.90;;;;;;4955095;28;20207;-83
2022/06/06 00:46:56;;;;;;;11.63;10.80;;;14.50;99.90;;;;;;4956587;28;20293;-82
2022/06/06 00:49:28;;;;;;;11.63;10.93;;;14.50;99.90;;;;;;4954374;28;20660;-83
2022/06/06 00:51:56;;;;;;;12.97;11.97;;;14.50;99.90;;;;;;4971030;28;20262;-81
2022/06/06 00:54:24;;;;;;;11.67;10.97;;;14.40;99.90;;;;;;4969841;28;20214;-83
2022/06/06 00:56:54;;;;;;;11.70;10.90;;;14.40;99.90;;;;;;4971205;28;20222;-83
2022/06/06 00:59:24;;;;;;;11.70;10.90;;;14.40;99.90;;;;;;4956405;28;20230;-83
2022/06/06 01:01:52;;;;;;;11.60;10.90;;;14.40;99.90;;;;;;4955481;28;20253;-82
2022/06/06 01:04:21;;;;;;;11.83;11.13;;;14.30;99.90;;;;;;4956309;28;20727;-83
2022/06/06 01:06:49;;;;;;;11.70;11.00;;;14.30;99.90;;;;;;4954822;28;20225;-83
2022/06/06 01:09:18;;;;;;;12.00;11.30;;;14.40;99.90;;;;;;4955864;28;20245;-83
2022/06/06 01:11:48;;;;;;;12.43;11.63;;;14.30;99.90;;;;;;4967276;28;20634;-82
2022/06/06 01:14:20;;;;;;;11.80;11.10;;;14.40;99.90;;;;;;4953506;28;20634;-83
2022/06/06 01:16:53;;;;;;;11.77;11.07;;;14.40;99.90;;;;;;4955983;28;20219;-83
2022/06/06 01:19:39;;;;;;;11.53;10.83;;;14.40;99.90;;;;;;4955936;28;20599;-83
2022/06/06 01:22:36;;;;;;;11.80;11.10;;;14.40;99.90;;;;;;4966522;28;20206;-82
2022/06/06 01:25:17;;;;;;;11.80;11.10;;;14.40;99.90;;;;;;4923500;28;20207;-83
2022/06/06 01:27:56;;;;;;;12.37;11.57;;;14.40;99.90;;;;;;4970332;28;20218;-83
2022/06/06 01:30:30;;;;;;;12.80;11.90;;;14.40;99.90;;;;;;4954724;28;20202;-81
2022/06/06 01:32:59;;;;;;;12.47;11.67;;;14.40;99.90;;;;;;4954769;28;20242;-83
2022/06/06 01:35:29;;;;;;;12.53;11.73;;;14.30;99.90;;;;;;4970507;28;20770;-82
2022/06/06 01:37:56;;;;;;;12.20;11.40;;;14.30;99.90;;;;;;4951035;28;20274;-82
2022/06/06 01:40:24;;;;;;;11.67;10.97;;;14.30;99.90;;;;;;4953066;28;20270;-82
2022/06/06 01:42:56;;;;;;;12.13;11.40;;;14.30;99.90;;;;;;4966726;28;20262;-83
2022/06/06 01:45:30;;;;;;;12.97;12.00;;;14.30;99.90;;;;;;4953947;28;20261;-83
2022/06/06 01:48:04;;;;;;;12.27;11.47;;;14.30;99.90;;;;;;4970317;28;20238;-83
2022/06/06 01:50:31;;;;;;;12.67;11.63;;;14.30;99.90;;;;;;4954134;28;20738;-80
2022/06/06 01:53:01;;;;;;;12.23;11.47;;;14.20;99.90;;;;;;4970062;28;20223;-83
2022/06/06 01:55:31;;;;;;;12.50;11.70;;;14.20;99.90;;;;;;4954992;28;20206;-83
2022/06/06 01:58:08;;;;;;;12.60;11.80;;;14.20;99.90;;;;;;4955047;28;20282;-82
2022/06/06 02:00:38;;;;;;;13.47;12.57;;;14.20;99.90;;;;;;4955119;28;20221;-83
2022/06/06 02:03:06;;;;;;;12.83;11.93;;;14.10;99.90;;;;;;4954076;28;20195;-82
2022/06/06 02:05:33;;;;;;;12.67;11.87;;;14.10;99.90;;;;;;4958158;28;20293;-83
2022/06/06 02:08:00;;;;;;;13.00;12.20;;;14.10;99.90;;;;;;4956512;28;20254;-83
2022/06/06 02:10:27;;;;;;;12.90;12.10;;;14.10;99.90;;;;;;4958412;28;20265;-81
2022/06/06 02:12:54;;;;;;;12.87;12.00;;;14.10;99.90;;;;;;4954744;28;20222;-83
2022/06/06 02:15:24;;;;;;;13.23;12.40;;;14.10;99.90;;;;;;4958050;28;20210;-83
2022/06/06 02:17:53;;;;;;;13.30;12.40;;;14.20;99.90;;;;;;4953441;28;20223;-82
2022/06/06 02:20:23;;;;;;;12.97;12.17;;;14.20;99.90;;;;;;4953581;28;20316;-83
2022/06/06 02:22:50;;;;;;;13.33;12.53;;;14.20;99.90;;;;;;4954742;28;20222;-82
2022/06/06 02:25:18;;;;;;;13.30;12.43;;;14.20;99.90;;;;;;4954814;28;20250;-83
2022/06/06 02:27:45;;;;;;;13.17;12.37;;;14.10;99.90;;;;;;4954372;28;20225;-81
2022/06/06 02:30:14;;;;;;;13.63;12.70;;;14.20;99.90;;;;;;4954688;28;20217;-81
2022/06/06 02:32:42;;;;;;;12.80;12.10;;;14.10;99.90;;;;;;4969328;28;20190;-83
2022/06/06 02:35:14;;;;;;;12.60;11.80;;;14.20;99.90;;;;;;4954791;28;20614;-83
2022/06/06 02:37:41;;;;;;;13.00;12.20;;;14.10;99.90;;;;;;4954460;28;20222;-83
2022/06/06 02:40:12;;;;;;;12.53;11.73;;;14.10;99.90;;;;;;4953148;28;20280;-81
2022/06/06 02:42:39;;;;;;;12.60;11.80;;;14.10;99.90;;;;;;4959976;28;20198;-82
2022/06/06 02:45:09;;;;;;;13.00;12.00;;;14.10;99.90;;;;;;4954591;28;20202;-83
2022/06/06 02:47:36;;;;;;;12.70;11.90;;;14.10;99.90;;;;;;4964723;28;20253;-83
2022/06/06 02:50:04;;;;;;;13.20;12.30;;;14.00;99.90;;;;;;4969355;28;20253;-81
2022/06/06 02:52:33;;;;;;;12.97;12.17;;;14.00;99.90;;;;;;4952681;28;20202;-83
2022/06/06 02:55:01;;;;;;;12.60;11.80;;;14.10;99.90;;;;;;4949450;29;20205;-82
2022/06/06 02:57:28;;;;;;;13.20;12.30;;;14.00;99.90;;;;;;4954183;28;20233;-83
2022/06/06 02:59:58;;;;;;;13.50;12.60;;;14.00;99.90;;;;;;4969067;28;20218;-83
2022/06/06 03:02:24;;;;;;;13.23;12.27;;;14.00;99.90;;;;;;4956213;28;20261;-83
2022/06/06 03:04:52;;;;;;;13.40;12.60;;;13.90;99.90;;;;;;4971996;28;20253;-80
2022/06/06 03:07:27;;;;;;;13.50;12.70;;;13.90;99.90;;;;;;4974438;28;20227;-79
2022/06/06 03:10:09;;;;;;;13.83;12.93;;;13.90;99.90;;;;;;4953564;28;20206;-80
2022/06/06 03:12:53;;;;;;;14.07;13.27;;;13.80;99.90;;;;;;4965217;28;20262;-80
2022/06/06 03:15:34;;;;;;;13.87;12.97;;;13.80;99.90;;;;;;4956048;28;20609;-79
2022/06/06 03:21:19;;;;;;;13.57;12.67;;;13.70;99.90;;;;;;4954622;28;20229;-79
2022/06/06 03:24:05;;;;;;;14.47;13.57;;;13.60;99.90;;;;;;4950492;28;20238;-79
2022/06/06 03:26:46;;;;;;;13.83;13.03;;;13.60;99.90;;;;;;4954707;28;20261;-81
2022/06/06 03:29:27;;;;;;;13.90;13.00;;;13.50;99.90;;;;;;4970162;28;20206;-81
2022/06/06 03:32:02;;;;;;;14.23;13.33;;;13.50;99.90;;;;;;4970492;28;20203;-81
2022/06/06 03:34:39;;;;;;;14.00;13.20;;;13.50;99.90;;;;;;4966866;28;20209;-80
2022/06/06 03:37:13;;;;;;;13.97;13.17;;;13.50;99.90;;;;;;4952933;28;20218;-81
2022/06/06 03:39:47;;;;;;;14.20;13.30;;;13.50;99.90;;;;;;4949559;29;20210;-81
2022/06/06 03:42:26;;;;;;;13.53;12.70;;;13.50;99.90;;;;;;4961242;28;20634;-80
2022/06/06 03:45:02;;;;;;;13.57;12.77;;;13.50;99.90;;;;;;4969764;28;20633;-81
2022/06/06 03:47:42;;;;;;;13.50;12.60;;;13.50;99.90;;;;;;4954505;28;20656;-81
2022/06/06 03:50:16;;;;;;;13.30;12.53;;;13.50;99.90;;;;;;4950829;28;20201;-84
2022/06/06 03:52:48;;;;;;;13.63;12.83;;;13.60;99.90;;;;;;4955370;28;20340;-80
2022/06/06 03:55:25;;;;;;;13.70;12.80;;;13.60;99.90;;;;;;4955741;28;20230;-80
2022/06/06 03:57:55;;;;;;;13.80;13.00;;;13.60;99.90;;;;;;4955180;28;20218;-80
2022/06/06 04:00:23;;;;;;;13.80;12.90;;;13.70;99.90;;;;;;4955595;28;20273;-80
2022/06/06 04:02:51;;;;;;;13.27;12.47;;;13.70;99.90;;;;;;4969745;28;20199;-80
2022/06/06 04:05:22;;;;;;;13.50;12.70;;;13.70;99.90;;;;;;4957749;28;20273;-81
2022/06/06 04:07:49;;;;;;;13.60;12.70;;;13.80;99.90;;;;;;4972498;28;20245;-81
2022/06/06 04:10:18;;;;;;;6.57;6.03;;;13.90;99.90;;;;;;4957405;28;20202;-81
2022/06/06 04:13:06;;;;;;;5.35;4.93;;;14.10;99.90;;;;;;4956474;28;20432;-80
2022/06/06 04:15:43;;;;;;;5.47;4.97;;;14.20;99.90;;;;;;4971636;28;20439;-80
2022/06/06 04:18:26;;;;;;;5.20;4.80;;;14.40;99.90;;;;;;4958178;28;20218;-80
2022/06/06 04:21:02;;;;;;;7.03;6.47;;;14.50;99.90;;;;;;4951531;28;20774;-81
2022/06/06 04:23:43;;;;;;;5.20;4.70;;;14.50;99.90;;;;;;4956253;28;20205;-80
2022/06/06 04:26:16;;;;;;;5.47;4.93;;;14.50;99.90;;;;;;4968914;28;20250;-81
2022/06/06 04:28:57;;;;;;;7.03;6.37;;;14.50;99.90;;;;;;4972703;28;20202;-81
2022/06/06 04:31:36;;;;;;;5.20;4.80;;;14.60;99.90;;;;;;4956174;28;20198;-78
2022/06/06 04:34:10;;;;;;;10.13;7.43;;;14.60;99.90;;;;;;4955880;28;20261;-80
2022/06/06 04:36:42;;;;;;;6.80;6.20;;;14.60;99.90;;;;;;4957256;28;20281;-80
2022/06/06 04:39:15;;;;;;;5.07;4.67;;;14.70;99.90;;;;;;4957046;28;20572;-80
2022/06/06 04:41:49;;;;;;;5.27;4.83;;;14.90;99.90;;;;;;4956736;28;20672;-80
2022/06/06 04:44:23;;;;;;;6.43;5.83;;;15.10;99.90;;;;;;4956036;28;20262;-77
2022/06/06 04:46:58;;;;;;;5.33;4.47;;;15.30;99.90;;;;;;4955846;28;20231;-77
2022/06/06 04:49:28;;;;;;;5.13;4.67;;;15.60;99.90;;;;;;4956040;28;20194;-80
2022/06/06 04:51:57;;;;;;;5.30;4.80;;;15.80;99.90;;;;;;4957803;28;20203;-81
2022/06/06 04:54:25;;;;;;;4.80;4.27;;;15.90;99.90;;;;;;4955480;28;20209;-81
2022/06/06 04:56:54;;;;;;;9.27;8.57;;;16.00;99.90;;;;;;4956896;28;20710;-80
2022/06/06 04:59:25;;;;;;;4.87;4.47;;;16.10;99.90;;;;;;4956855;28;20631;-81
2022/06/06 05:01:52;;;;;;;10.43;9.73;;;16.30;99.90;;;;;;4971558;28;20202;-81
2022/06/06 05:04:19;;;;;;;5.37;5.00;;;16.40;99.90;;;;;;4955184;28;20204;-81
2022/06/06 05:07:19;;;;;;;7.80;7.20;;;16.80;99.90;;;;;;4957279;28;20215;-81
2022/06/06 05:10:09;;;;;;;6.90;6.40;;;17.10;99.90;;;;;;4947744;28;20208;-80
2022/06/06 05:12:55;;;;;;;8.30;7.67;;;17.30;99.90;;;;;;4948747;28;20261;-81
2022/06/06 05:15:37;;;;;;;5.63;5.13;;;17.50;99.90;;;;;;4955382;28;20253;-80
2022/06/06 05:18:18;;;;;;;12.10;11.40;;;17.70;99.90;;;;;;4955888;28;20218;-78
2022/06/06 05:20:57;;;;;;;7.50;7.00;;;17.80;99.90;;;;;;4955367;28;20214;-81
2022/06/06 05:24:04;;;;;;;12.03;11.33;;;17.90;99.90;;;;;;4959611;28;20206;-81
2022/06/06 05:27:02;;;;;;;10.60;9.97;;;18.10;99.90;;;;;;4953599;28;20845;-82
2022/06/06 05:29:43;;;;;;;8.63;8.03;;;18.20;99.90;;;;;;4953432;28;20606;-84
2022/06/06 05:32:35;;;;;;;12.40;11.60;;;18.10;99.90;;;;;;4948092;28;20207;-83
2022/06/06 05:35:14;;;;;;;7.87;7.27;;;18.20;99.90;;;;;;4965783;28;20208;-83
2022/06/06 05:37:53;;;;;;;7.80;4.43;;;18.40;99.90;;;;;;4947905;28;20218;-83
2022/06/06 05:40:33;;;;;;;11.20;10.50;;;18.90;99.90;;;;;;4965952;28;20221;-83
2022/06/06 05:43:25;;;;;;;8.70;8.10;;;19.20;99.90;;;;;;4950592;28;20261;-81
2022/06/06 05:46:05;;;;;;;9.63;8.77;;;19.70;99.90;;;;;;4953903;28;20683;-83
2022/06/06 05:48:59;;;;;;;9.47;8.67;;;20.40;99.90;;;;;;4955453;28;20230;-82
2022/06/06 05:51:39;;;;;;;6.47;5.87;;;21.20;99.90;;;;;;4969883;28;20588;-80
2022/06/06 05:54:17;;;;;;;6.10;5.60;;;21.40;99.90;;;;;;4965013;28;20198;-82
2022/06/06 05:57:00;;;;;;;10.10;9.20;;;21.50;99.90;;;;;;4954710;28;20229;-80
2022/06/06 05:59:43;;;;;;;7.80;7.23;;;21.80;99.90;;;;;;4959854;28;20265;-81
2022/06/06 06:02:25;;;;;;;7.03;6.40;;;22.20;99.90;;;;;;4952523;28;20191;-79
2022/06/06 06:05:10;;;;;;;6.57;5.97;;;22.10;99.90;;;;;;4957016;28;20668;-83
2022/06/06 06:07:43;;;;;;;10.33;9.73;;;22.00;99.90;;;;;;4954026;28;20280;-81
2022/06/06 06:10:15;;;;;;;10.77;10.07;;;22.40;99.90;;;;;;4952040;28;20439;-80
2022/06/06 06:13:12;;;;;;;3.60;3.30;;;22.90;99.90;;;;;;4947559;28;20230;-80
2022/06/06 06:15:41;;;;;;;4.70;4.17;;;23.20;99.90;;;;;;4955691;28;20194;-80
2022/06/06 06:18:14;;;;;;;3.90;3.60;;;23.30;99.90;;;;;;4951885;28;20646;-81
2022/06/06 06:20:49;;;;;;;4.57;3.50;;;23.70;99.90;;;;;;4960065;28;20219;-80
2022/06/06 06:23:21;;;;;;;8.70;8.03;;;23.80;99.90;;;;;;4951539;28;20652;-79
2022/06/06 06:25:50;;;;;;;5.20;4.90;;;23.50;99.90;;;;;;4970784;28;20620;-83
2022/06/06 06:28:17;;;;;;;7.77;7.27;;;23.70;99.90;;;;;;4956331;28;20236;-81
2022/06/06 06:30:59;;;;;;;4.47;4.17;;;23.60;99.90;;;;;;4954581;28;20199;-80
2022/06/06 06:33:39;;;;;;;7.17;6.67;;;23.80;99.90;;;;;;4958437;28;20249;-80
2022/06/06 06:36:18;;;;;;;5.07;4.67;;;24.10;99.90;;;;;;4956849;28;20202;-80
2022/06/06 06:38:57;;;;;;;4.43;4.03;;;24.10;99.90;;;;;;4958169;28;20194;-80
2022/06/06 06:41:33;;;;;;;8.43;7.73;;;23.90;99.90;;;;;;4956743;28;20628;-82
2022/06/06 06:44:05;;;;;;;4.03;3.60;;;23.80;99.90;;;;;;4956241;28;20206;-81
2022/06/06 06:46:36;;;;;;;5.40;3.50;;;24.30;99.90;;;;;;4951796;28;20627;-79
2022/06/06 06:49:13;;;;;;;4.60;4.23;;;24.50;99.90;;;;;;4968039;28;20210;-80
2022/06/06 06:51:51;;;;;;;5.60;5.17;;;24.20;99.90;;;;;;4947645;28;20257;-81
2022/06/06 06:54:36;;;;;;;7.90;7.30;;;24.20;99.90;;;;;;4953025;28;20249;-80
2022/06/06 06:57:14;;;;;;;4.77;4.37;;;24.20;99.90;;;;;;4954957;28;20790;-79
2022/06/06 06:59:53;;;;;;;3.80;3.40;;;24.30;99.90;;;;;;4951941;28;20451;-79
2022/06/06 07:08:35;;;;;;;7.87;7.10;;;24.60;99.90;;;;;;4944956;28;20219;-81
2022/06/06 07:11:20;;;;;;;8.10;7.40;;;24.90;99.90;;;;;;4957344;28;20554;-81
2022/06/06 07:14:03;;;;;;;6.00;5.57;;;24.80;99.90;;;;;;4955774;28;20206;-83
2022/06/06 07:16:33;;;;;;;4.37;4.00;;;24.90;99.90;;;;;;4969898;28;20653;-82
2022/06/06 07:19:05;;;;;;;5.60;5.10;;;25.00;99.90;;;;;;4965079;28;20211;-83
2022/06/06 07:21:33;;;;;;;6.63;6.13;;;25.30;99.90;;;;;;4952283;28;20210;-82
2022/06/06 07:24:04;;;;;;;5.47;4.90;;;25.60;99.90;;;;;;4969167;28;20211;-82
2022/06/06 07:26:37;;;;;;;5.37;3.40;;;26.10;99.90;;;;;;4953606;28;20725;-82
2022/06/06 07:29:05;;;;;;;9.60;8.80;;;26.30;99.90;;;;;;4952270;28;20199;-82
2022/06/06 07:31:43;;;;;;;9.23;8.63;;;26.70;99.90;;;;;;4947654;28;20277;-82
2022/06/06 07:34:29;;;;;;;7.50;6.97;;;26.90;99.90;;;;;;4969219;28;20218;-82
2022/06/06 07:37:07;;;;;;;7.50;7.00;;;26.80;99.90;;;;;;4947085;28;20222;-82
2022/06/06 07:39:48;;;;;;;7.57;6.97;;;27.20;99.90;;;;;;4970864;28;20202;-82
2022/06/06 07:42:40;;;;;;;7.70;7.10;;;27.30;99.90;;;;;;4955683;28;20297;-82
2022/06/06 07:45:17;;;;;;;7.37;6.87;;;27.50;99.90;;;;;;4972951;28;20257;-81
2022/06/06 07:48:21;;;;;;;7.43;6.70;;;27.50;99.90;;;;;;4956251;28;20253;-82
2022/06/06 07:50:57;;;;;;;6.70;6.30;;;27.50;99.90;;;;;;4952091;28;20198;-81
2022/06/06 07:53:34;;;;;;;6.53;6.13;;;27.50;99.90;;;;;;4956483;28;20213;-82
2022/06/06 07:56:11;;;;;;;6.70;6.20;;;27.30;99.90;;;;;;4956973;28;20207;-82
2022/06/06 07:58:45;;;;;;;7.20;6.60;;;27.20;99.90;;;;;;4957684;28;20194;-83
2022/06/06 08:01:16;;;;;;;6.87;6.27;;;27.30;99.90;;;;;;4956415;28;20258;-83
2022/06/06 08:03:53;;;;;;;7.20;6.60;;;27.60;99.90;;;;;;4958087;28;20277;-80
2022/06/06 08:06:31;;;;;;;7.07;6.57;;;27.70;99.90;;;;;;4953440;28;20506;-82
2022/06/06 08:09:22;;;;;;;7.13;6.63;;;27.20;99.90;;;;;;4969473;28;20198;-80
2022/06/06 08:12:03;;;;;;;8.80;8.20;;;27.20;99.90;;;;;;4973993;28;20202;-81
2022/06/06 08:14:41;;;;;;;6.90;6.40;;;27.10;99.90;;;;;;4956457;28;20302;-80
2022/06/06 08:17:18;;;;;;;7.13;6.63;;;27.20;99.90;;;;;;4971870;28;20498;-82
2022/06/06 08:20:06;;;;;;;6.97;6.40;;;27.40;99.90;;;;;;4970317;28;20202;-80
2022/06/06 08:22:35;;;;;;;6.70;6.23;;;27.60;99.90;;;;;;4971618;28;20226;-81
2022/06/06 08:25:06;;;;;;;6.47;5.93;;;27.50;99.90;;;;;;4957415;28;20209;-81
2022/06/06 08:27:35;;;;;;;6.30;5.90;;;27.40;99.90;;;;;;4956553;28;20215;-78
2022/06/06 08:30:03;;;;;;;8.13;7.33;;;27.60;99.90;;;;;;4955685;29;20656;-78
2022/06/06 08:32:30;;;;;;;8.37;7.87;;;27.70;99.90;;;;;;4956430;28;20599;-78
2022/06/06 08:34:57;;;;;;;6.73;6.23;;;27.30;99.90;;;;;;4954927;29;20246;-79
2022/06/06 08:37:40;;;;;;;6.80;6.20;;;27.60;99.90;;;;;;4955948;28;20222;-79
2022/06/06 08:40:31;;;;;;;6.80;6.20;;;27.80;99.90;;;;;;4952369;28;20194;-78
2022/06/06 08:43:03;;;;;;;6.73;6.23;;;28.10;99.90;;;;;;4951561;28;20254;-79
2022/06/06 08:45:50;;;;;;;6.40;5.87;;;28.40;99.90;;;;;;4955792;28;20202;-78
2022/06/06 08:48:39;;;;;;;6.50;6.00;;;28.50;99.90;;;;;;4956930;28;20292;-79
2022/06/06 08:51:22;;;;;;;7.93;7.37;;;27.70;99.90;;;;;;4950368;28;20632;-78
2022/06/06 08:54:25;;;;;;;7.83;7.33;;;27.10;99.90;;;;;;4956127;28;20285;-79
2022/06/06 08:57:06;;;;;;;3.93;3.63;;;26.60;99.90;;;;;;4956021;28;20270;-80
2022/06/06 09:00:11;;;;;;;3.10;2.80;;;26.40;99.90;;;;;;4970228;28;20230;-79
2022/06/06 09:03:15;;;;;;;4.30;3.03;;;26.70;99.90;;;;;;4951787;28;20616;-81
2022/06/06 09:05:58;;;;;;;6.47;2.73;;;27.10;99.90;;;;;;4964342;28;20257;-80
2022/06/06 09:09:01;;;;;;;2.90;2.70;;;27.30;99.90;;;;;;4968278;28;20738;-81
2022/06/06 09:11:57;;;;;;;2.97;2.70;;;27.60;99.90;;;;;;4953210;28;20202;-81
2022/06/06 09:15:07;;;;;;;2.97;2.70;;;27.70;99.90;;;;;;4966110;28;20688;-81
2022/06/06 09:18:03;;;;;;;3.70;2.60;;;27.30;99.90;;;;;;4950646;28;20214;-80
2022/06/06 09:20:49;;;;;;;3.67;2.73;;;27.20;99.90;;;;;;4938563;28;20281;-79
2022/06/06 09:23:40;;;;;;;3.00;2.70;;;27.40;99.90;;;;;;4953163;28;20233;-79
2022/06/06 09:26:24;;;;;;;3.70;2.87;;;27.60;99.90;;;;;;4950493;28;20624;-79
2022/06/06 09:29:21;;;;;;;2.60;2.50;;;27.50;99.90;;;;;;4955901;28;20655;-79
2022/06/06 09:32:25;;;;;;;3.23;2.30;;;27.40;99.90;;;;;;4950358;28;20195;-79
2022/06/06 09:35:29;;;;;;;3.53;2.53;;;27.60;99.90;;;;;;4955811;28;20197;-79
2022/06/06 09:38:12;;;;;;;3.60;2.50;;;27.80;99.90;;;;;;4961285;28;20226;-80
2022/06/06 09:40:56;;;;;;;2.60;2.40;;;28.00;99.90;;;;;;4965539;28;20198;-79
2022/06/06 09:43:34;;;;;;;2.50;2.30;;;28.30;99.90;;;;;;4953940;28;20203;-79
2022/06/06 09:46:35;;;;;;;3.50;2.73;;;28.10;99.90;;;;;;4954795;28;20230;-79
2022/06/06 09:49:34;;;;;;;3.47;2.30;;;27.90;99.90;;;;;;4950694;28;20266;-79
2022/06/06 09:52:38;;;;;;;2.67;2.47;;;28.00;99.90;;;;;;4962156;28;20199;-79
2022/06/06 09:59:05;;;;;;;2.87;2.60;;;27.70;99.90;;;;;;4958973;28;20222;-79
2022/06/06 10:01:54;;;;;;;3.03;2.83;;;27.40;99.90;;;;;;4968198;28;20302;-79
2022/06/06 10:04:58;;;;;;;2.67;2.47;;;27.50;99.90;;;;;;4952926;28;20202;-79
2022/06/06 10:08:03;;;;;;;5.30;5.00;;;27.70;99.90;;;;;;4952896;28;20519;-78
2022/06/06 10:11:08;;;;;;;2.60;2.40;;;28.10;99.90;;;;;;4951761;28;20210;-78
2022/06/06 10:13:51;;;;;;;3.63;2.80;;;27.90;99.90;;;;;;4968868;28;20194;-79
2022/06/06 10:16:35;;;;;;;2.30;2.20;;;27.60;99.90;;;;;;4954737;28;20209;-79
2022/06/06 10:19:20;;;;;;;3.70;3.50;;;27.50;99.90;;;;;;4950441;28;20194;-78
2022/06/06 10:22:20;;;;;;;4.00;3.70;;;27.40;99.90;;;;;;4968542;28;21033;-77
2022/06/06 10:25:10;;;;;;;3.90;2.97;;;27.60;99.90;;;;;;4963068;28;20253;-78
2022/06/06 10:27:55;;;;;;;2.80;2.60;;;27.60;99.90;;;;;;4946854;28;20707;-80
2022/06/06 10:30:27;;;;;;;3.00;2.40;;;27.30;99.90;;;;;;4968886;28;20265;-79
2022/06/06 10:33:20;;;;;;;2.83;2.60;;;26.90;99.90;;;;;;4953300;28;20912;-80
2022/06/06 10:36:01;;;;;;;4.63;4.27;;;26.40;99.90;;;;;;4954256;28;20574;-80
2022/06/06 10:38:45;;;;;;;3.47;2.97;;;26.00;99.90;;;;;;4952791;28;20727;-81
2022/06/06 10:41:27;;;;;;;5.80;5.27;;;25.40;99.90;;;;;;4954975;28;20198;-80
2022/06/06 10:44:30;;;;;;;6.90;6.40;;;25.10;99.90;;;;;;4962276;28;20257;-78
2022/06/06 10:47:09;;;;;;;6.70;6.30;;;24.90;99.90;;;;;;4952857;28;20305;-79
2022/06/06 10:49:47;;;;;;;6.90;6.40;;;24.80;99.90;;;;;;4955018;29;20583;-79
2022/06/06 10:52:39;;;;;;;7.40;6.80;;;24.70;99.90;;;;;;4951894;28;20668;-80
2022/06/06 10:55:36;;;;;;;6.73;6.27;;;24.60;99.90;;;;;;4954013;28;20690;-79
2022/06/06 10:58:47;;;;;;;5.80;5.37;;;24.80;99.90;;;;;;4950028;28;20211;-79
2022/06/06 11:01:57;;;;;;;2.50;2.30;;;25.10;99.90;;;;;;4894646;29;20212;-80
2022/06/06 11:04:55;;;;;;;3.20;2.37;;;25.40;99.90;;;;;;4952277;28;20257;-80
2022/06/06 11:07:54;;;;;;;2.43;2.17;;;25.70;99.90;;;;;;4967057;28;20230;-78
2022/06/06 11:10:37;;;;;;;2.63;2.43;;;25.80;99.90;;;;;;4947294;28;20338;-79
2022/06/06 11:13:23;;;;;;;2.60;2.40;;;26.00;99.90;;;;;;4952146;28;20212;-80
2022/06/06 11:16:24;;;;;;;4.67;2.40;;;26.10;99.90;;;;;;4969260;28;20202;-80
2022/06/06 11:19:25;;;;;;;2.80;2.20;;;26.20;99.90;;;;;;4965317;28;20257;-79
2022/06/06 11:22:16;;;;;;;2.40;2.20;;;26.30;99.90;;;;;;4966254;28;20235;-80
2022/06/06 11:24:53;;;;;;;2.60;2.40;;;26.50;99.90;;;;;;4953695;28;20203;-76
2022/06/06 11:27:38;;;;;;;2.30;2.20;;;26.90;99.90;;;;;;4968485;28;20309;-79
2022/06/06 11:30:30;;;;;;;2.60;2.40;;;27.10;99.90;;;;;;4968539;28;20630;-80
2022/06/06 11:33:30;;;;;;;4.63;2.73;;;27.10;99.90;;;;;;4943635;28;20206;-79
2022/06/06 11:36:38;;;;;;;2.87;2.53;;;27.00;99.90;;;;;;4950814;28;20249;-80
2022/06/06 11:39:48;;;;;;;3.57;2.63;;;26.80;99.90;;;;;;4961511;28;20203;-76
2022/06/06 11:42:28;;;;;;;2.70;2.23;;;26.90;99.90;;;;;;4955500;28;20278;-79
2022/06/06 11:45:19;;;;;;;2.60;2.40;;;27.00;99.90;;;;;;4962893;28;20210;-80
2022/06/06 11:47:58;;;;;;;3.40;2.40;;;27.00;99.90;;;;;;4949750;28;20222;-79
2022/06/06 11:50:58;;;;;;;3.20;2.40;;;27.20;99.90;;;;;;4954379;28;20202;-79
2022/06/06 11:53:57;;;;;;;2.60;2.40;;;27.20;99.90;;;;;;4965414;28;20647;-80
2022/06/06 11:56:50;;;;;;;2.87;2.57;;;27.00;99.90;;;;;;4945566;28;20270;-80
2022/06/06 11:59:44;;;;;;;2.43;2.30;;;26.70;99.90;;;;;;4954984;28;20203;-80
2022/06/06 12:02:45;;;;;;;2.40;2.20;;;26.60;99.90;;;;;;4963612;28;20219;-80
2022/06/06 12:05:31;;;;;;;2.80;2.60;;;26.60;99.90;;;;;;4938032;28;20632;-80
2022/06/06 12:08:23;;;;;;;4.23;2.20;;;26.50;99.90;;;;;;4953504;28;20225;-79
2022/06/06 12:11:06;;;;;;;2.50;2.23;;;26.30;99.90;;;;;;4972523;28;20227;-80
2022/06/06 12:13:57;;;;;;;3.40;2.20;;;26.00;99.90;;;;;;4968417;28;20202;-80
2022/06/06 12:16:33;;;;;;;2.20;2.00;;;25.70;99.90;;;;;;4951738;28;20763;-80
2022/06/06 12:19:32;;;;;;;2.60;2.40;;;25.60;99.90;;;;;;4964587;28;20206;-78
2022/06/06 12:22:21;;;;;;;2.87;2.67;;;25.70;99.90;;;;;;4950245;28;20752;-80
2022/06/06 12:25:27;;;;;;;2.63;2.43;;;25.80;99.90;;;;;;4947580;28;20202;-79
2022/06/06 12:28:14;;;;;;;2.30;2.20;;;26.00;99.90;;;;;;4949871;28;20218;-78
2022/06/06 12:31:07;;;;;;;2.20;2.00;;;26.10;99.90;;;;;;4955271;28;20203;-78
2022/06/06 12:33:41;;;;;;;2.30;2.10;;;26.10;99.90;;;;;;4953996;28;20198;-78
2022/06/06 12:36:16;;;;;;;3.27;2.10;;;25.70;99.90;;;;;;4966337;28;20207;-78
2022/06/06 12:38:51;;;;;;;5.93;5.53;;;25.50;99.90;;;;;;4947000;28;20253;-77
2022/06/06 12:41:37;;;;;;;5.77;5.47;;;25.50;99.90;;;;;;4952586;28;20771;-79
2022/06/06 12:44:18;;;;;;;6.10;5.70;;;25.50;99.90;;;;;;4968605;28;20203;-78
2022/06/06 12:47:21;;;;;;;5.87;5.47;;;25.80;99.90;;;;;;4954214;28;20277;-79
2022/06/06 12:50:12;;;;;;;5.90;5.50;;;26.00;99.90;;;;;;4947219;28;20738;-79
2022/06/06 12:53:08;;;;;;;6.03;5.63;;;25.90;99.90;;;;;;4953164;28;20205;-79
2022/06/06 12:56:09;;;;;;;5.90;5.50;;;25.90;99.90;;;;;;4974490;28;20202;-80
2022/06/06 12:58:42;;;;;;;3.13;2.93;;;25.90;99.90;;;;;;4957636;28;20219;-78
2022/06/06 13:01:39;;;;;;;3.40;3.10;;;26.10;99.90;;;;;;4958051;28;20248;-79
2022/06/06 13:04:26;;;;;;;5.93;5.53;;;26.10;99.90;;;;;;4964436;28;20698;-81
2022/06/06 13:07:04;;;;;;;2.83;2.50;;;26.30;99.90;;;;;;4963676;28;20222;-80
2022/06/06 13:09:48;;;;;;;2.67;2.33;;;26.60;99.90;;;;;;4959330;28;20210;-79
2022/06/06 13:12:27;;;;;;;2.40;2.20;;;26.80;99.90;;;;;;4971255;28;20204;-80
2022/06/06 13:15:09;;;;;;;3.33;2.30;;;26.80;99.90;;;;;;4958320;28;20209;-80
2022/06/06 13:17:50;;;;;;;2.10;2.00;;;26.60;99.90;;;;;;4951379;28;20582;-80
2022/06/06 13:20:39;;;;;;;2.40;2.00;;;26.60;99.90;;;;;;4958137;28;20210;-80
2022/06/06 13:23:47;;;;;;;3.73;2.17;;;26.70;99.90;;;;;;4955326;28;20333;-79
2022/06/06 13:26:31;;;;;;;2.87;2.17;;;26.60;99.90;;;;;;4950433;28;20199;-79
2022/06/06 13:28:58;;;;;;;2.90;2.20;;;26.70;99.80;;;;;;4951129;28;20195;-80
2022/06/06 13:31:37;;;;;;;2.27;2.10;;;26.60;98.80;;;;;;4955186;28;20206;-79
2022/06/06 13:34:22;;;;;;;2.00;1.90;;;26.30;99.90;;;;;;4964557;28;20208;-81
2022/06/06 13:37:06;;;;;;;2.30;1.90;;;26.30;99.90;;;;;;4968087;28;20238;-79
2022/06/06 13:39:55;;;;;;;2.20;2.10;;;26.30;99.90;;;;;;4956677;29;20206;-79
2022/06/06 13:42:48;;;;;;;5.30;5.00;;;26.30;99.30;;;;;;4954301;29;20230;-79
2022/06/06 13:45:29;;;;;;;4.63;4.23;;;26.50;99.90;;;;;;4958432;28;20201;-79
2022/06/06 13:48:27;;;;;;;5.00;3.60;;;26.50;99.60;;;;;;4953981;28;20234;-79
2022/06/06 13:51:05;;;;;;;4.20;3.90;;;26.40;99.20;;;;;;4956555;28;20206;-79
2022/06/06 13:53:52;;;;;;;4.67;4.33;;;26.20;99.40;;;;;;4955418;28;20211;-79
2022/06/06 13:56:58;;;;;;;5.23;4.70;;;26.10;99.90;;;;;;4950638;28;20206;-79
2022/06/06 14:00:04;;;;;;;3.60;3.30;;;26.00;99.90;;;;;;4959953;28;20223;-79
2022/06/06 14:02:41;;;;;;;5.00;4.67;;;26.00;99.90;;;;;;4940731;28;20221;-80
2022/06/06 14:05:23;;;;;;;5.10;4.80;;;26.10;99.90;;;;;;4965146;28;20198;-79
2022/06/06 14:08:06;;;;;;;5.23;4.83;;;25.90;99.90;;;;;;4947699;28;20305;-79